• Join FlightAware (Why Join?)
  • Login
  • US Flag 
12:54AM EDT


 

Airport Tracker/Info


-or-


 

Live Flight TrackerFlight Track Log ✈ N942CE ✈ 30-Jun-2013 ✈ KIAD - KPTK

Flight Track Log - Related Links

Times and Time Zones

All times are in EDT time to prevent confusion due to time zone crossing. See the N942CE flight status page for this flight to view local times or setup timezone preferences in your user account.

Time Position Orientation Groundspeed Altitude Reporting Facility
EDT Latitude Longitude Course Direction KTS MPH feet Rate Location/Type
10:45PM 38.9500 -77.5333 North 157 181 2,500  Level Potomac TRACON
10:46PM 38.9667 -77.5833 293° West 174 200 4,200 1,740 Climbing Potomac TRACON
10:47PM 39.0694 -77.6156 346° North 182 209 7,800 1,680 Climbing Washington Center
10:49PM 39.1236 -77.6142 North 182 209 9,400 1,560 Climbing Washington Center
10:49PM 39.1819 -77.6158 359° North 189 217 11,000 780 Climbing Washington Center
10:50PM 39.3101 -77.4500 North  Level FlightAware Approximate
10:51PM 39.2508 -77.6097 North 219 252 11,000  Level Washington Center
10:51PM 39.3217 -77.6064 North 238 274 12,700 1,920 Climbing Washington Center
10:52PM 39.3778 -77.6186 350° North 226 260 14,800 1,620 Climbing Washington Center
10:54PM 39.4186 -77.6708 315° West 202 232 16,000 540 Climbing Washington Center
10:54PM 39.4761 -77.7264 323° Northwest 223 257 15,900  Descending Washington Center
10:55PM 39.5375 -77.7900 321° Northwest 259 298 16,000  Climbing Washington Center
10:56PM 39.5989 -77.8511 323° Northwest 278 320 15,900  Descending Washington Center
10:58PM 39.6558 -77.9122 320° Northwest 278 320 16,000  Climbing Washington Center
10:59PM 39.7119 -77.9653 324° Northwest 271 312 16,000  Level Cleveland Center
11:00PM 39.7803 -78.0356 322° Northwest 271 312 16,000  Level Cleveland Center
11:01PM 39.8378 -78.0931 322° Northwest 271 312 16,000  Level Cleveland Center
11:02PM 39.8853 -78.1669 310° West 266 306 16,000 300 Level Cleveland Center
11:03PM 39.9303 -78.2358 310° West 261 300 16,700 1,200 Climbing Cleveland Center
11:04PM 39.9672 -78.2969 308° West 237 273 18,500 1,560 Climbing Cleveland Center
11:05PM 40.0014 -78.3500 310° West 218 251 19,900 1,380 Climbing Cleveland Center
11:06PM 40.0381 -78.4056 311° West 207 238 21,300 1,260 Climbing Cleveland Center
11:07PM 40.0703 -78.4561 310° West 197 227 22,500 1,080 Climbing Cleveland Center
11:08PM 40.1003 -78.5039 309° West 192 221 23,500 900 Climbing Cleveland Center
11:09PM 40.1367 -78.5572 312° West 192 221 24,300 780 Climbing Cleveland Center
11:10PM 40.1711 -78.6133 309° West 192 221 25,100 720 Climbing Cleveland Center
11:11PM 40.2075 -78.6692 310° West 197 227 25,800 420 Climbing Cleveland Center
11:12PM 40.2481 -78.7306 311° West 204 235 26,000 60 Climbing Cleveland Center
11:13PM 40.2931 -78.8003 310° West 226 260 26,000  Level Cleveland Center
11:14PM 40.3358 -78.8725 308° West 244 281 26,000  Level Cleveland Center
11:15PM 40.3764 -78.9425 307° West 244 281 26,000  Level Cleveland Center
11:16PM 40.4169 -79.0150 306° West 244 281 26,000  Level Cleveland Center
11:17PM 40.4556 -79.0850 306° West 244 281 26,000  Level Cleveland Center
11:18PM 40.4981 -79.1550 309° West 244 281 26,000  Level Cleveland Center
11:19PM 40.5364 -79.2281 305° West 244 281 26,000  Level Cleveland Center
11:20PM 40.5769 -79.2983 307° West 244 281 26,000  Level Cleveland Center
11:21PM 40.6153 -79.3606 309° West 244 281 26,000  Level Cleveland Center
11:22PM 40.6556 -79.4336 306° West 244 281 26,000  Level Cleveland Center
11:23PM 40.6958 -79.5042 307° West 244 281 26,000  Level Cleveland Center
11:24PM 40.7361 -79.5775 306° West 244 281 26,000  Level Cleveland Center
11:25PM 40.7700 -79.6508 301° West 244 281 26,000  Level Cleveland Center
11:26PM 40.7978 -79.7275 296° West 232 267 26,000  Level Cleveland Center
11:27PM 40.8275 -79.8039 297° West 227 261 26,000  Level Cleveland Center
11:28PM 40.8572 -79.8775 298° West 227 261 26,000  Level Cleveland Center
11:29PM 40.8847 -79.9542 295° West 227 261 26,000  Level Cleveland Center
11:30PM 40.9122 -80.0308 295° West 233 268 26,000  Level Cleveland Center
11:31PM 40.9417 -80.1075 297° West 233 268 26,000  Level Cleveland Center
11:32PM 40.9711 -80.1844 297° West 238 274 26,000  Level Cleveland Center
11:33PM 40.9986 -80.2611 295° West 238 274 26,000  Level Cleveland Center
11:34PM 41.0322 -80.3464 298° West 238 274 26,000  Level Cleveland Center
11:35PM 41.0614 -80.4233 297° West 238 274 26,000  Level Cleveland Center
11:36PM 41.0886 -80.5006 295° West 238 274 26,000  Level Cleveland Center
11:37PM 41.1178 -80.5775 297° West 238 274 26,000  Level Cleveland Center
11:38PM 41.1450 -80.6547 295° West 238 274 26,000  Level Cleveland Center
11:39PM 41.1719 -80.7319 295° West 238 274 26,000  Level Cleveland Center
11:40PM 41.2008 -80.8122 296° West 238 274 26,000  Level Cleveland Center
11:41PM 41.2278 -80.8869 296° West 238 274 26,000  Level Cleveland Center
11:42PM 41.2547 -80.9642 295° West 238 274 26,000  Level Cleveland Center
11:43PM 41.2836 -81.0417 296° West 238 274 26,000  Level Cleveland Center
11:44PM 41.3144 -81.1222 297° West 238 274 26,000  Level Cleveland Center
11:45PM 41.3433 -81.2056 295° West 238 274 26,000  Level Cleveland Center
11:46PM 41.3742 -81.2886 296° West 244 281 26,000  Level Cleveland Center
11:47PM 41.4047 -81.3750 295° West 251 289 26,000 -420 Level Cleveland Center
11:48PM 41.4356 -81.4556 297° West 257 296 25,200 -1,020 Descending Cleveland Center
11:49PM 41.4722 -81.5586 295° West 274 315 24,000 -720 Descending Cleveland Center
11:50PM 41.4986 -81.6394 294° West 273 314 23,800 -900 Descending Cleveland Center
11:51PM 41.5311 -81.7286 296° West 273 314 22,200 -1,680 Descending Cleveland Center
11:52PM 41.5656 -81.8208 297° West 273 314 20,500 -1,740 Descending Cleveland Center
11:53PM 41.5958 -81.9131 294° West 273 314 18,800 -1,680 Descending Cleveland Center
11:54PM 41.6281 -82.0056 295° West 279 321 17,200 -1,680 Descending Cleveland Center
11:55PM 41.6603 -82.0950 296° West 279 321 15,500 -1,500 Descending Cleveland Center
11:56PM 41.6883 -82.1819 293° West 274 315 14,200 -1,260 Descending Cleveland Center
11:57PM 41.7183 -82.2689 295° West 268 308 13,000 -1,320 Descending Cleveland Center
11:57PM 41.7383 -82.3194 298° West 255 293 12,300 -1,320 Descending Cleveland Center
11:58PM 41.7483 -82.3533 292° West 261 300 11,700 -1,200 Descending Cleveland Center
11:59PM 41.7803 -82.4406 296° West 256 295 10,500 -1,200 Descending Cleveland Center
12:00AM 41.8100 -82.5278 295° West 256 295 9,300 -780 Descending Cleveland Center
12:01AM 41.8419 -82.6178 295° West 241 277 9,000 -180 Descending Cleveland Center
12:02AM 41.8847 -82.6667 320° Northwest 241 277 9,000  Level Cleveland Center
12:03AM 41.9361 -82.7131 326° Northwest 223 257 9,000 -60 Level Cleveland Center
12:04AM 41.9872 -82.7594 326° Northwest 223 257 8,900  Descending Cleveland Center
12:05AM 42.0383 -82.8114 323° Northwest 223 257 9,000  Climbing Cleveland Center
12:06AM 42.0914 -82.8636 324° Northwest 223 257 9,000  Level Cleveland Center
12:07AM 42.1428 -82.9131 325° Northwest 223 257 9,000  Level Cleveland Center
12:08AM 42.2203 -82.9861 325° Northwest 228 262 9,000  Level Cleveland Center
12:09AM 42.2714 -83.0386 323° Northwest 228 262 9,000 -120 Level Cleveland Center
12:10AM 42.3286 -83.0942 324° Northwest 229 264 8,800 -300 Descending Cleveland Center
12:11AM 42.3775 -83.1383 326° Northwest 212 244 8,400 -540 Descending Cleveland Center
12:12AM 42.4164 -83.1792 322° Northwest 198 228 7,800 -840 Descending Cleveland Center
12:13AM 42.4608 -83.2317 319° Northwest 201 231 6,900 -900 Descending Cleveland Center
12:14AM 42.4931 -83.2892 307° West 203 234 6,000 -780 Descending Cleveland Center
12:15AM 42.5228 -83.3525 303° West 175 201 5,300 -780 Descending Cleveland Center
12:16AM 42.5422 -83.4097 295° West 151 174 4,400 -900 Descending Cleveland Center
12:17AM 42.5597 -83.4614 295° West 147 169 3,500 -840 Descending Cleveland Center
12:18AM 42.5883 -83.4881 326° Northwest 113 130 2,900 -540 Descending Cleveland Center
12:19AM 42.6192 -83.4950 351° North 108 124 2,500 -420 Descending Cleveland Center